Time;durP1;ratioP1;P1;durP2;ratioP2;P2;SDS_P1;SDS_P2;PMS_P1;PMS_P2;Temp;Humidity;BMP_temperature;BMP_pressure;BME280_temperature;BME280_humidity;BME280_pressure;Samples;Min_cycle;Max_cycle;Signal;HPM_P1;HPM_P2
2022/07/21 06:19:19;;;;;;;11.70;7.65;;;;;;;21.11;66.58;97075.00;2117622;27;20547;-67
2022/07/21 06:20:21;;;;;;;22.20;8.35;;;;;;;20.73;67.43;97074.44;2116002;28;20194;-67
2022/07/21 06:21:22;;;;;;;17.88;8.77;;;;;;;20.77;67.57;97073.22;2115885;28;20194;-67
2022/07/21 06:22:24;;;;;;;14.05;7.13;;;;;;;20.77;67.57;97061.78;2109814;28;20218;-67
2022/07/21 06:23:26;;;;;;;20.90;8.63;;;;;;;20.71;67.88;97069.28;2105885;28;20202;-67
2022/07/21 06:24:29;;;;;;;12.95;7.57;;;;;;;20.73;68.58;97069.13;2106045;28;20190;-67
2022/07/21 06:42:00;;;;;;;16.20;6.93;;;;;;;20.85;65.55;97067.34;2082391;28;20556;-67
2022/07/21 06:43:02;;;;;;;12.02;7.55;;;;;;;20.88;65.25;97062.59;2070564;28;20194;-67
2022/07/21 06:44:24;;;;;;;19.17;7.57;;;;;;;20.90;65.63;97067.81;2068753;28;20206;-67
2022/07/21 06:45:26;;;;;;;10.82;6.95;;;;;;;20.90;64.91;97070.47;2070563;28;20201;-67
2022/07/21 06:46:27;;;;;;;10.10;6.55;;;;;;;20.95;64.61;97075.38;2070031;28;20198;-67
2022/07/21 06:47:29;;;;;;;12.07;6.57;;;;;;;21.08;64.17;97062.81;2067979;28;20230;-67
2022/07/21 06:48:30;;;;;;;12.35;6.20;;;;;;;21.20;64.02;97079.56;2070625;28;20229;-67
2022/07/21 06:49:32;;;;;;;16.10;8.05;;;;;;;21.19;64.38;97083.19;2070470;28;20233;-67
2022/07/21 06:50:35;;;;;;;16.58;7.32;;;;;;;21.25;63.82;97079.19;2070253;28;20198;-67
2022/07/21 06:51:36;;;;;;;12.82;6.88;;;;;;;21.40;63.98;97077.94;2070385;28;20194;-67
2022/07/21 06:52:38;;;;;;;10.18;6.80;;;;;;;21.60;63.75;97079.00;2068396;28;21109;-67
2022/07/21 07:14:55;;;;;;;10.38;6.43;;;;;;;20.87;65.25;97095.44;2084358;28;21023;-67
2022/07/21 07:15:56;;;;;;;11.68;7.10;;;;;;;21.02;65.15;97095.19;2085810;28;20209;-67
2022/07/21 07:16:59;;;;;;;13.52;7.03;;;;;;;21.12;64.72;97098.78;2080906;28;20549;-67
2022/07/21 07:18:01;;;;;;;12.20;7.35;;;;;;;21.19;64.88;97097.31;2074022;28;20193;-67
2022/07/21 07:19:02;;;;;;;11.98;7.40;;;;;;;21.27;65.36;97095.84;2071676;28;20211;-67
2022/07/21 07:20:06;;;;;;;12.80;7.30;;;;;;;21.29;64.62;97099.22;2072532;28;20548;-67
2022/07/21 07:21:07;;;;;;;9.10;6.70;;;;;;;21.60;63.83;97092.28;2070886;28;20245;-67
2022/07/21 07:22:12;;;;;;;13.65;7.10;;;;;;;21.46;64.61;97093.38;2072825;28;20252;-67
2022/07/21 07:23:13;;;;;;;10.80;6.65;;;;;;;21.73;64.52;97091.28;2075972;28;20204;-67
2022/07/21 07:39:43;;;;;;;13.07;6.30;;;;;;;21.51;61.39;97103.63;2091604;28;20568;-67
2022/07/21 07:40:45;;;;;;;14.23;7.55;;;;;;;21.63;61.13;97102.63;2094461;28;20195;-67
2022/07/21 07:41:47;;;;;;;10.15;6.65;;;;;;;22.00;60.01;97107.56;2092150;28;20901;-67
2022/07/21 07:42:50;;;;;;;12.82;7.35;;;;;;;22.07;59.79;97107.03;2067015;28;20195;-67
2022/07/21 07:43:52;;;;;;;11.00;6.35;;;;;;;22.29;59.24;97109.56;2066815;28;20198;-67
2022/07/21 07:44:54;;;;;;;11.35;6.20;;;;;;;22.29;59.06;97109.56;2067759;28;20288;-67
2022/07/21 07:45:55;;;;;;;11.30;5.82;;;;;;;22.43;59.03;97102.25;2064553;28;20205;-68
2022/07/21 07:46:57;;;;;;;10.57;6.78;;;;;;;22.18;59.03;97113.16;2062878;28;20194;-67
2022/07/21 07:47:59;;;;;;;12.32;6.97;;;;;;;22.17;58.50;97110.63;2068801;28;20200;-67
2022/07/21 07:49:00;;;;;;;8.23;5.78;;;;;;;22.10;59.16;97110.28;2067963;28;20197;-67
2022/07/21 07:50:13;;;;;;;11.93;6.20;;;;;;;21.99;59.86;97110.34;2066331;28;20813;-67
2022/07/21 07:51:15;;;;;;;13.82;6.65;;;;;;;22.30;58.75;97108.59;2066317;28;20209;-67
2022/07/21 07:52:16;;;;;;;14.77;6.18;;;;;;;22.19;59.19;97103.34;2065100;28;20279;-67
2022/07/21 08:12:53;;;;;;;8.90;5.60;;;;;;;21.36;61.27;97105.72;2084327;28;20572;-67
2022/07/21 08:13:54;;;;;;;12.32;6.47;;;;;;;21.66;59.95;97118.34;2085446;28;20203;-67
2022/07/21 08:14:57;;;;;;;10.93;5.43;;;;;;;21.69;59.64;97109.28;2084270;28;20204;-67
2022/07/21 08:15:59;;;;;;;8.90;5.32;;;;;;;21.62;59.27;97093.00;2077056;28;20715;-67
2022/07/21 08:17:00;;;;;;;19.63;6.05;;;;;;;21.93;59.25;97102.88;2078916;28;20414;-67
2022/07/21 08:18:02;;;;;;;19.77;6.28;;;;;;;21.98;58.79;97104.19;2072958;28;20201;-67
2022/07/21 08:19:04;;;;;;;10.85;6.22;;;;;;;22.10;58.81;97101.47;2071072;28;20197;-67
2022/07/21 08:20:09;;;;;;;7.63;5.63;;;;;;;22.23;58.00;97104.75;2072836;28;20607;-67
2022/07/21 08:21:11;;;;;;;10.70;6.18;;;;;;;22.20;58.24;97099.72;2076918;28;20217;-66
2022/07/21 08:22:13;;;;;;;11.32;5.88;;;;;;;22.31;58.00;97102.31;2076225;28;20235;-66
2022/07/21 08:23:16;;;;;;;8.18;5.63;;;;;;;22.58;55.77;97097.44;2074969;28;20247;-67
2022/07/21 08:24:18;;;;;;;9.57;5.57;;;;;;;22.87;55.29;97104.69;2073800;28;20544;-66
2022/07/21 08:25:19;;;;;;;12.23;5.88;;;;;;;23.03;55.54;97094.38;2071551;28;20201;-66
2022/07/21 08:26:20;;;;;;;11.80;5.63;;;;;;;23.28;55.00;97098.38;2075229;28;20208;-66
2022/07/21 08:27:22;;;;;;;8.90;5.03;;;;;;;23.45;54.27;97101.34;2073589;28;20220;-66
2022/07/21 08:28:24;;;;;;;12.57;5.50;;;;;;;22.98;54.25;97077.97;2073318;28;20923;-66
2022/07/21 08:42:26;;;;;;;6.72;4.32;;;;;;;24.72;48.35;97084.41;2085735;27;20568;-65
2022/07/21 08:43:28;;;;;;;10.85;4.45;;;;;;;25.01;48.02;97094.94;2077626;28;20315;-66
2022/07/21 08:44:32;;;;;;;9.25;4.25;;;;;;;25.12;47.29;97093.94;2077937;28;20652;-66
2022/07/21 08:45:33;;;;;;;8.52;4.47;;;;;;;25.23;47.52;97088.38;2076503;28;20197;-66
2022/07/21 08:46:35;;;;;;;5.90;4.25;;;;;;;25.16;47.17;97083.78;2075335;28;20650;-66
2022/07/21 08:47:37;;;;;;;7.45;3.92;;;;;;;25.06;48.35;97090.00;2074440;28;20221;-66
2022/07/21 08:48:45;;;;;;;12.00;3.85;;;;;;;23.73;49.31;97064.19;2076374;28;20197;-66
2022/07/21 08:49:46;;;;;;;9.30;3.95;;;;;;;23.83;49.30;97081.03;2078710;28;20197;-66
2022/07/21 08:50:48;;;;;;;9.88;4.55;;;;;;;24.43;48.14;97088.84;2075784;28;20204;-65
2022/07/21 08:51:51;;;;;;;8.20;3.92;;;;;;;24.82;47.88;97087.88;2077882;28;20208;-66
2022/07/21 08:52:53;;;;;;;6.20;4.20;;;;;;;24.69;47.34;97082.03;2076085;28;20235;-65
2022/07/21 08:54:02;;;;;;;7.70;4.43;;;;;;;24.78;47.97;97083.81;2066258;28;20233;-66
2022/07/21 08:55:03;;;;;;;9.48;5.13;;;;;;;25.27;46.56;97079.06;2068113;28;20198;-65
2022/07/21 08:56:05;;;;;;;8.90;4.20;;;;;;;25.05;46.35;97087.50;2069522;28;20271;-66
2022/07/21 08:57:07;;;;;;;7.03;4.50;;;;;;;24.97;46.11;97090.91;2071536;28;20221;-66
2022/07/21 08:58:11;;;;;;;6.63;3.90;;;;;;;24.44;47.08;97089.66;2078212;28;20668;-66
2022/07/21 08:59:13;;;;;;;7.43;3.45;;;;;;;23.99;46.39;97077.84;2076596;28;20205;-66
2022/07/21 09:00:15;;;;;;;11.07;4.25;;;;;;;24.13;47.08;97081.88;2076528;28;20201;-66
2022/07/21 09:01:17;;;;;;;4.80;3.33;;;;;;;23.89;47.26;97090.31;2071593;28;20201;-66
2022/07/21 09:02:37;;;;;;;7.05;3.90;;;;;;;24.01;47.38;97083.03;2072375;28;20756;-66
2022/07/21 09:03:39;;;;;;;4.03;3.00;;;;;;;24.73;46.08;97092.25;2076526;28;20197;-65
2022/07/21 09:04:40;;;;;;;7.60;3.92;;;;;;;24.83;45.84;97078.88;2078157;28;20197;-66
2022/07/21 09:05:58;;;;;;;11.48;4.25;;;;;;;24.70;46.18;97084.56;2076341;28;20204;-65
2022/07/21 09:07:07;;;;;;;6.07;4.03;;;;;;;24.81;46.20;97088.88;2075779;28;20311;-65
2022/07/21 09:08:09;;;;;;;11.05;4.40;;;;;;;24.79;46.12;97080.16;2076162;28;20201;-66
2022/07/21 09:09:18;;;;;;;6.55;4.18;;;;;;;24.65;46.15;97080.66;2076245;28;20649;-66
2022/07/21 09:10:24;;;;;;;7.75;4.30;;;;;;;24.74;45.87;97082.44;2076798;28;20200;-66
2022/07/21 09:11:30;;;;;;;10.30;4.78;;;;;;;24.45;46.07;97078.00;2076578;28;20216;-66
2022/07/21 09:12:48;;;;;;;7.30;4.03;;;;;;;24.45;45.65;97086.03;2077955;28;20221;-66
2022/07/21 09:14:11;;;;;;;5.90;3.50;;;;;;;25.00;45.81;97085.28;2078249;28;20197;-65
2022/07/21 09:15:14;;;;;;;6.90;3.47;;;;;;;25.03;44.45;97084.13;2074551;28;20208;-66
2022/07/21 09:16:32;;;;;;;11.65;3.75;;;;;;;25.15;45.28;97087.44;2075378;28;20548;-66
2022/07/21 09:36:30;;;;;;;5.75;3.70;;;;;;;26.11;43.25;97104.81;2084159;28;21063;-64
2022/07/21 09:37:32;;;;;;;6.05;3.03;;;;;;;25.96;43.23;97099.13;2078442;28;20269;-64
2022/07/21 09:38:37;;;;;;;4.93;3.10;;;;;;;26.34;43.52;97111.31;2078968;28;20197;-64
2022/07/21 09:39:46;;;;;;;6.53;3.78;;;;;;;26.44;43.49;97105.03;2077989;28;20216;-64
2022/07/21 09:40:48;;;;;;;14.02;3.47;;;;;;;26.39;42.86;97105.50;2078780;28;20571;-63
2022/07/21 09:41:50;;;;;;;5.55;3.20;;;;;;;26.36;42.59;97092.41;2076842;28;20197;-64
2022/07/21 09:42:51;;;;;;;5.78;3.40;;;;;;;26.20;43.16;97094.00;2078920;28;20542;-64
2022/07/21 09:43:56;;;;;;;4.28;3.35;;;;;;;25.96;40.63;97094.59;2078118;28;20227;-64
2022/07/21 09:45:07;;;;;;;4.18;2.45;;;;;;;25.51;40.24;97099.06;2078356;28;20201;-64
2022/07/21 09:46:22;;;;;;;4.85;2.47;;;;;;;25.89;40.03;97094.41;2078849;28;20190;-64
2022/07/21 09:47:29;;;;;;;4.32;2.65;;;;;;;26.14;38.87;97083.06;2077976;28;20245;-64
2022/07/21 09:48:33;;;;;;;4.60;2.50;;;;;;;26.10;39.61;97087.06;2077472;28;20197;-64
2022/07/21 09:49:41;;;;;;;3.67;2.40;;;;;;;26.02;39.77;97091.31;2077382;28;20205;-63
2022/07/21 09:51:23;;;;;;;5.57;2.60;;;;;;;26.17;40.01;97088.97;2078186;28;20240;-64
2022/07/21 09:52:40;;;;;;;7.25;2.78;;;;;;;25.96;40.11;97099.13;2077445;28;20227;-64
2022/07/21 09:54:00;;;;;;;4.20;2.80;;;;;;;26.17;40.44;97091.63;2077729;28;20203;-63
2022/07/21 09:55:07;;;;;;;5.05;2.88;;;;;;;26.39;40.40;97089.44;2078514;28;20196;-63
2022/07/21 09:56:09;;;;;;;3.88;2.70;;;;;;;26.73;39.74;97080.63;2078380;28;20205;-64
2022/07/21 09:57:11;;;;;;;5.50;2.97;;;;;;;26.37;39.77;97091.44;2078334;28;20227;-64
2022/07/21 09:58:14;;;;;;;7.47;3.00;;;;;;;25.95;40.53;97086.75;2078701;28;20554;-63
2022/07/21 09:59:15;;;;;;;5.82;2.55;;;;;;;25.94;40.60;97095.75;2078620;28;20208;-63
2022/07/21 10:00:20;;;;;;;6.97;3.42;;;;;;;26.01;40.25;97080.78;2078512;28;20259;-64
2022/07/21 10:01:23;;;;;;;8.77;3.35;;;;;;;25.87;40.32;97088.34;2078656;28;20193;-64
2022/07/21 10:02:31;;;;;;;7.28;3.10;;;;;;;25.53;41.23;97081.00;2078084;28;20232;-64
2022/07/21 10:03:33;;;;;;;11.70;3.50;;;;;;;25.44;41.32;97087.28;2078256;28;20221;-64
2022/07/21 10:04:35;;;;;;;6.10;3.05;;;;;;;25.37;41.93;97081.72;2077051;28;20201;-63
2022/07/21 10:05:56;;;;;;;6.85;3.20;;;;;;;25.92;39.83;97083.38;2077771;28;20683;-64
2022/07/21 10:06:59;;;;;;;8.75;2.97;;;;;;;26.23;39.43;97082.13;2078236;28;20197;-64
2022/07/21 10:08:03;;;;;;;7.10;3.08;;;;;;;26.59;38.54;97075.81;2078688;28;20209;-64
2022/07/21 10:09:09;;;;;;;7.57;2.75;;;;;;;26.83;38.37;97075.13;2078442;28;20259;-64
2022/07/21 10:10:13;;;;;;;3.85;2.88;;;;;;;27.17;36.60;97068.91;2077990;28;20343;-63
2022/07/21 10:11:16;;;;;;;5.47;3.00;;;;;;;26.74;37.69;97068.94;2078602;28;20208;-63
2022/07/21 10:12:20;;;;;;;6.22;2.53;;;;;;;26.82;37.71;97071.63;2077417;28;20247;-63
2022/07/21 10:13:23;;;;;;;6.03;2.95;;;;;;;26.96;37.86;97074.72;2078468;28;20272;-64
2022/07/21 10:14:25;;;;;;;5.18;3.00;;;;;;;27.35;37.65;97069.63;2077033;28;20197;-63
2022/07/21 10:15:26;;;;;;;8.10;3.78;;;;;;;27.65;36.82;97079.94;2078610;28;20193;-63
2022/07/21 10:16:28;;;;;;;3.85;2.72;;;;;;;27.77;36.69;97072.38;2078321;28;20214;-64
2022/07/21 10:17:29;;;;;;;5.65;3.00;;;;;;;27.54;35.86;97076.56;2078141;28;20217;-64
2022/07/21 10:18:36;;;;;;;6.18;2.40;;;;;;;27.80;36.07;97072.06;2078616;28;20204;-64
2022/07/21 10:19:59;;;;;;;4.28;3.40;;;;;;;27.16;37.08;97083.28;2078384;28;20209;-64
2022/07/21 10:21:34;;;;;;;18.90;3.20;;;;;;;26.52;37.86;97070.28;2078499;28;20193;-63
2022/07/21 10:23:17;;;;;;;5.07;2.92;;;;;;;26.96;37.41;97072.03;2068576;28;20256;-63
2022/07/21 10:24:21;;;;;;;10.25;3.58;;;;;;;26.69;38.71;97066.69;2078458;28;20838;-64
2022/07/21 10:25:23;;;;;;;5.60;3.60;;;;;;;26.86;38.63;97064.94;2078401;28;20227;-64
2022/07/21 10:26:24;;;;;;;6.88;2.88;;;;;;;27.43;38.43;97066.16;2078406;28;20193;-64
2022/07/21 10:27:26;;;;;;;7.13;3.92;;;;;;;27.64;38.77;97070.19;2077999;28;20221;-64
2022/07/21 10:28:47;;;;;;;7.70;3.45;;;;;;;27.55;39.73;97063.97;2078255;28;20247;-64
2022/07/21 10:30:00;;;;;;;4.57;3.50;;;;;;;27.63;39.50;97064.00;2078447;28;20193;-64
2022/07/21 10:49:05;;;;;;;6.45;4.00;;;;;;;27.21;39.77;97067.56;2108107;27;21049;-62
2022/07/21 10:50:07;;;;;;;4.93;3.75;;;;;;;26.81;40.69;97072.63;2108151;28;20209;-62
2022/07/21 10:51:10;;;;;;;5.18;3.70;;;;;;;26.72;40.86;97065.53;2106492;28;20195;-63
2022/07/21 10:52:39;;;;;;;9.30;4.63;;;;;;;26.34;42.16;97078.38;2102498;28;20254;-63
2022/07/21 10:53:44;;;;;;;6.55;4.32;;;;;;;26.52;41.51;97071.09;2097593;28;20199;-63
2022/07/21 10:55:24;;;;;;;8.30;4.07;;;;;;;26.44;41.71;97064.88;2098097;28;20191;-63
2022/07/21 10:56:28;;;;;;;7.45;3.95;;;;;;;26.40;42.00;97056.34;2100036;28;20213;-63
2022/07/21 10:57:29;;;;;;;5.82;3.72;;;;;;;26.54;41.18;97065.63;2099286;28;20226;-64
2022/07/21 10:58:32;;;;;;;5.63;4.18;;;;;;;26.50;41.54;97066.91;2101306;28;20191;-63
2022/07/21 11:00:11;;;;;;;9.63;4.75;;;;;;;27.08;40.75;97060.00;2099230;28;20200;-63
2022/07/21 11:01:15;;;;;;;6.65;4.00;;;;;;;27.69;39.30;97059.81;2098012;28;20199;-62
2022/07/21 11:02:28;;;;;;;7.50;4.30;;;;;;;27.99;39.33;97060.16;2081614;28;20232;-63
2022/07/21 11:03:33;;;;;;;7.63;4.10;;;;;;;28.30;38.28;97057.66;2084210;28;20231;-64
2022/07/21 11:05:05;;;;;;;8.60;6.35;;;;;;;28.74;37.50;97055.53;2089211;28;20196;-62
2022/07/21 11:06:09;;;;;;;13.93;8.35;;;;;;;29.11;35.94;97060.22;2089763;28;20200;-63
2022/07/21 11:07:10;;;;;;;9.27;7.80;;;;;;;28.70;35.37;97057.72;2087765;28;20219;-63
2022/07/21 11:08:21;;;;;;;7.95;4.07;;;;;;;28.90;35.66;97049.25;2090722;28;20667;-63
2022/07/21 11:09:23;;;;;;;7.20;4.40;;;;;;;28.39;36.16;97058.47;2090183;28;20212;-63
2022/07/21 11:10:26;;;;;;;4.03;3.33;;;;;;;28.28;35.75;97056.13;2091379;28;20188;-63
2022/07/21 11:11:29;;;;;;;10.45;4.07;;;;;;;28.08;36.64;97058.34;2093854;28;20200;-63
2022/07/21 11:12:56;;;;;;;11.30;4.32;;;;;;;27.81;38.19;97049.59;2089679;28;20229;-63
2022/07/21 11:14:17;;;;;;;6.55;4.60;;;;;;;27.32;39.60;97059.22;2090631;28;20414;-63
2022/07/21 11:15:54;;;;;;;5.95;4.18;;;;;;;27.66;39.42;97052.09;2090786;28;20196;-63
2022/07/21 11:17:01;;;;;;;5.65;4.30;;;;;;;27.52;40.09;97057.13;2087460;28;20204;-63
2022/07/21 11:18:02;;;;;;;6.57;4.50;;;;;;;28.23;38.60;97058.50;2086131;28;20250;-63
2022/07/21 11:19:04;;;;;;;6.38;4.00;;;;;;;28.76;37.71;97058.88;2089152;28;20488;-64
2022/07/21 11:20:14;;;;;;;8.30;4.38;;;;;;;28.63;38.12;97062.06;2090160;28;20461;-63
2022/07/21 11:21:16;;;;;;;5.30;4.00;;;;;;;28.38;37.74;97048.72;2087828;28;20200;-63
2022/07/21 11:22:23;;;;;;;7.10;5.13;;;;;;;28.67;37.49;97050.84;2088418;28;20224;-63
2022/07/21 11:23:40;;;;;;;6.07;4.05;;;;;;;28.91;37.94;97051.78;2091162;28;20195;-63
2022/07/21 11:24:45;;;;;;;8.23;4.60;;;;;;;29.44;36.22;97054.69;2089882;28;20200;-63
2022/07/21 11:25:46;;;;;;;5.78;4.18;;;;;;;29.54;36.29;97054.47;2091140;28;20199;-63
2022/07/21 11:26:55;;;;;;;7.50;4.43;;;;;;;29.07;36.50;97042.78;2091173;28;20208;-63
2022/07/21 11:27:56;;;;;;;6.35;4.40;;;;;;;28.74;37.53;97051.00;2092094;28;20286;-63
2022/07/21 11:29:07;;;;;;;6.90;4.35;;;;;;;29.28;36.69;97052.97;2092735;28;20691;-63
2022/07/21 11:30:10;;;;;;;9.43;4.78;;;;;;;29.62;36.10;97057.13;2091007;28;20196;-63
2022/07/21 11:31:24;;;;;;;17.63;4.50;;;;;;;29.23;35.96;97035.63;2090838;28;20204;-62
2022/07/21 11:32:26;;;;;;;7.82;4.78;;;;;;;28.98;36.35;97030.41;2090130;28;20862;-63
2022/07/21 11:33:27;;;;;;;7.57;5.00;;;;;;;29.26;36.60;97046.88;2088923;28;20208;-63
2022/07/21 11:34:44;;;;;;;14.57;3.53;;;;;;;29.29;36.55;97048.41;2088996;28;21078;-63
2022/07/21 11:35:45;;;;;;;13.43;4.40;;;;;;;28.18;37.87;97049.09;2090629;28;20563;-63
2022/07/21 11:36:47;;;;;;;6.17;3.50;;;;;;;28.40;37.92;97043.19;2090159;28;20197;-63
2022/07/21 11:38:08;;;;;;;9.17;3.60;;;;;;;28.22;38.29;97052.28;2092953;28;20421;-63
2022/07/21 11:39:15;;;;;;;6.57;3.77;;;;;;;28.32;38.56;97044.03;2091506;28;20504;-63
2022/07/21 11:40:19;;;;;;;5.50;3.92;;;;;;;28.41;38.28;97050.25;2088980;28;20751;-64
2022/07/21 11:41:20;;;;;;;5.82;3.10;;;;;;;28.31;38.18;97050.41;2089045;28;20656;-64
2022/07/21 11:42:22;;;;;;;5.88;3.15;;;;;;;28.15;38.33;97045.91;2091029;28;20244;-64
2022/07/21 11:43:40;;;;;;;10.20;4.03;;;;;;;27.70;39.77;97046.22;2091660;28;20204;-63
2022/07/21 11:44:43;;;;;;;6.13;3.60;;;;;;;27.85;38.46;97042.91;2089333;28;20911;-64
2022/07/21 11:45:52;;;;;;;7.05;3.20;;;;;;;27.67;38.58;97043.88;2090675;28;20436;-64
2022/07/21 11:46:57;;;;;;;6.07;3.80;;;;;;;27.44;38.30;97041.03;2081760;28;20630;-63
2022/07/21 11:47:58;;;;;;;7.03;4.28;;;;;;;27.09;39.41;97040.25;2083389;28;20564;-63
2022/07/21 11:49:06;;;;;;;7.55;3.53;;;;;;;27.46;38.84;97035.50;2092226;28;20232;-63
2022/07/21 11:50:10;;;;;;;4.65;3.47;;;;;;;28.39;38.09;97034.31;2089297;28;20195;-64
2022/07/21 11:51:12;;;;;;;6.60;3.95;;;;;;;29.15;37.16;97032.00;2090726;28;20572;-64
2022/07/21 11:52:18;;;;;;;6.57;3.70;;;;;;;28.90;36.95;97039.34;2087966;28;20290;-64
2022/07/21 11:53:19;;;;;;;13.82;3.25;;;;;;;29.39;36.93;97037.44;2090369;28;20717;-63
2022/07/21 11:54:22;;;;;;;6.35;4.10;;;;;;;29.97;35.93;97046.75;2091362;28;20197;-63
2022/07/21 11:55:28;;;;;;;5.43;3.83;;;;;;;29.90;35.55;97035.06;2091490;28;20278;-63
2022/07/21 11:56:38;;;;;;;6.93;3.92;;;;;;;29.35;36.01;97045.00;2093818;28;20196;-63
2022/07/21 11:57:44;;;;;;;6.10;3.28;;;;;;;28.82;36.92;97039.38;2090567;28;20227;-63
2022/07/21 11:58:48;;;;;;;5.55;3.25;;;;;;;28.92;36.68;97040.00;2089490;28;20203;-64
2022/07/21 11:59:52;;;;;;;6.38;3.40;;;;;;;29.22;36.42;97034.00;2090114;28;20203;-63
2022/07/21 12:01:07;;;;;;;5.93;4.00;;;;;;;29.37;36.60;97043.00;2086858;28;20639;-64
2022/07/21 12:02:12;;;;;;;9.88;3.70;;;;;;;29.60;36.67;97042.19;2082338;28;20469;-63
2022/07/21 12:03:14;;;;;;;5.43;3.50;;;;;;;30.37;35.80;97045.72;2084947;28;20189;-64
2022/07/21 12:04:52;;;;;;;5.25;3.75;;;;;;;30.08;34.52;97040.13;2084836;28;20940;-63
2022/07/21 12:05:53;;;;;;;4.90;3.20;;;;;;;29.94;35.91;97035.50;2083863;28;20201;-63
2022/07/21 12:06:56;;;;;;;5.30;3.50;;;;;;;29.47;36.77;97031.97;2084742;28;20809;-63
2022/07/21 12:07:57;;;;;;;7.33;3.53;;;;;;;30.12;35.58;97033.34;2085147;28;20200;-64
2022/07/21 12:08:59;;;;;;;5.85;3.63;;;;;;;30.42;35.40;97029.84;2084463;28;20433;-64
2022/07/21 12:10:12;;;;;;;4.93;3.40;;;;;;;30.71;33.88;97030.91;2086065;28;20197;-63
2022/07/21 12:11:13;;;;;;;9.97;3.70;;;;;;;30.05;34.38;97029.69;2084846;28;20429;-64
2022/07/21 12:12:27;;;;;;;7.40;3.60;;;;;;;29.72;35.10;97021.88;2084704;28;20465;-64
2022/07/21 12:13:28;;;;;;;128.43;86.40;;;;;;;29.27;35.69;97023.53;2079735;28;20430;-61
2022/07/21 12:14:44;;;;;;;14.60;8.70;;;;;;;29.16;36.06;97028.28;2085337;28;20482;-63
2022/07/21 12:15:46;;;;;;;10.67;7.17;;;;;;;29.00;36.83;97028.38;2087694;28;20425;-62
2022/07/21 12:16:53;;;;;;;9.80;4.87;;;;;;;28.64;37.32;97029.66;2085447;28;20794;-63
2022/07/21 12:17:58;;;;;;;7.97;4.10;;;;;;;29.22;36.45;97032.13;2083423;28;20448;-63
2022/07/21 12:19:09;;;;;;;5.50;3.90;;;;;;;29.69;35.71;97027.63;2082011;28;20602;-64
2022/07/21 12:20:11;;;;;;;9.67;3.13;;;;;;;30.14;34.91;97033.16;2085550;28;20894;-63
2022/07/21 12:21:13;;;;;;;8.03;4.13;;;;;;;30.48;34.74;97028.31;2084746;28;20461;-63
2022/07/21 12:22:16;;;;;;;10.23;4.27;;;;;;;30.49;34.29;97030.81;2084860;28;20478;-63
2022/07/21 12:23:28;;;;;;;7.17;4.10;;;;;;;30.26;34.39;97034.38;2083300;28;20828;-63
2022/07/21 12:24:53;;;;;;;12.33;4.20;;;;;;;29.72;35.16;97023.75;2083430;28;20953;-64
2022/07/21 12:25:56;;;;;;;5.40;3.40;;;;;;;29.74;35.04;97027.09;2084628;28;20449;-64
2022/07/21 12:27:11;;;;;;;5.60;3.80;;;;;;;29.48;35.61;97025.59;2084156;28;20429;-63
2022/07/21 12:28:13;;;;;;;6.03;3.87;;;;;;;29.05;36.38;97017.97;2083813;28;20425;-63
2022/07/21 12:29:29;;;;;;;5.10;3.73;;;;;;;28.92;36.76;97029.25;2083608;28;20458;-63
2022/07/21 12:30:41;;;;;;;6.80;3.47;;;;;;;29.54;35.68;97032.94;2082831;28;20433;-63
2022/07/21 12:31:43;;;;;;;5.33;4.03;;;;;;;29.68;35.46;97020.56;2084961;28;20437;-63
2022/07/21 12:32:48;;;;;;;6.03;3.70;;;;;;;29.69;34.79;97024.94;2081211;28;20797;-64
2022/07/21 12:33:51;;;;;;;8.70;4.20;;;;;;;29.77;35.26;97024.03;2084911;28;20425;-63
2022/07/21 12:35:23;;;;;;;6.90;4.30;;;;;;;29.71;34.57;97024.75;2076486;28;20430;-64
2022/07/21 12:36:33;;;;;;;5.10;3.73;;;;;;;29.91;34.56;97027.81;2080794;28;20417;-63
2022/07/21 12:37:55;;;;;;;10.50;4.37;;;;;;;30.09;34.10;97030.16;2085224;28;20458;-63
2022/07/21 12:39:55;;;;;;;9.50;3.60;;;;;;;29.38;35.89;97030.38;2083271;28;20473;-63
2022/07/21 12:40:47;;;;;;;7.70;3.40;;;;;;;28.46;37.68;97021.03;2085878;28;20502;-63
2022/07/21 12:42:26;;;;;;;6.87;3.13;;;;;;;28.33;38.67;97030.44;2084830;28;20466;-63
2022/07/21 12:43:28;;;;;;;6.40;3.60;;;;;;;27.98;39.00;97023.59;2087924;28;20820;-63
2022/07/21 12:44:33;;;;;;;9.13;3.70;;;;;;;27.77;39.43;97033.00;2083332;28;20442;-64
2022/07/21 12:45:52;;;;;;;6.43;3.75;;;;;;;27.52;39.81;97026.78;2084709;28;20437;-63
2022/07/21 12:46:53;;;;;;;4.65;3.85;;;;;;;27.45;40.87;97023.09;2083834;28;20197;-64
2022/07/21 12:48:13;;;;;;;5.25;4.10;;;;;;;27.33;40.33;97031.41;2085817;28;20674;-63
2022/07/21 12:49:15;;;;;;;8.30;3.40;;;;;;;27.56;40.32;97019.25;2084292;28;20656;-64
2022/07/21 12:50:16;;;;;;;7.95;3.55;;;;;;;27.32;40.83;97029.72;2081768;28;20429;-64
2022/07/21 12:51:24;;;;;;;5.25;3.05;;;;;;;27.35;40.63;97034.78;2084721;28;20197;-64
2022/07/21 12:52:27;;;;;;;5.53;3.40;;;;;;;27.36;40.91;97038.28;2085032;28;20654;-64
2022/07/21 12:53:30;;;;;;;4.72;3.20;;;;;;;28.13;38.90;97013.88;2080849;28;20643;-63
2022/07/21 12:54:32;;;;;;;6.32;3.53;;;;;;;28.83;37.61;97028.44;2084001;28;20580;-63
2022/07/21 12:55:34;;;;;;;5.32;3.88;;;;;;;29.09;37.07;97035.41;2076127;28;20218;-64
2022/07/21 12:56:36;;;;;;;5.38;3.72;;;;;;;28.98;37.35;97033.94;2075934;28;20202;-64
2022/07/21 12:57:38;;;;;;;7.03;4.18;;;;;;;29.47;36.62;97042.75;2084792;28;20287;-64
2022/07/21 12:58:40;;;;;;;5.30;3.47;;;;;;;29.78;35.64;97033.78;2084798;28;20196;-64
2022/07/21 12:59:41;;;;;;;7.57;3.90;;;;;;;29.93;35.17;97037.38;2075195;28;20194;-64
2022/07/21 13:00:43;;;;;;;7.20;3.70;;;;;;;29.73;34.84;97034.31;2076213;28;20235;-64
2022/07/21 13:01:44;;;;;;;10.00;4.00;;;;;;;30.30;34.29;97034.84;2082728;28;20197;-63
2022/07/21 13:02:50;;;;;;;10.25;3.95;;;;;;;30.71;33.94;97034.41;2084235;28;20452;-63
2022/07/21 13:03:53;;;;;;;4.73;3.23;;;;;;;31.09;33.67;97033.47;2084039;28;20526;-63
2022/07/21 13:04:54;;;;;;;6.10;3.17;;;;;;;31.21;33.28;97031.97;2083704;28;20427;-63
2022/07/21 13:05:56;;;;;;;4.70;3.70;;;;;;;30.37;34.00;97024.16;2085619;28;20912;-63
2022/07/21 13:06:59;;;;;;;7.53;3.60;;;;;;;30.81;33.33;97022.53;2082398;28;20464;-64
2022/07/21 13:08:01;;;;;;;5.43;3.30;;;;;;;30.55;33.43;97022.00;2085801;28;20423;-64
2022/07/21 13:09:03;;;;;;;5.50;3.30;;;;;;;30.61;33.74;97023.09;2085744;28;20430;-64
2022/07/21 13:10:04;;;;;;;3.93;2.90;;;;;;;30.77;33.38;97016.69;2084054;28;20477;-64
2022/07/21 13:11:08;;;;;;;5.07;3.10;;;;;;;30.87;32.92;97029.88;2084781;28;20478;-64
2022/07/21 13:12:11;;;;;;;5.37;3.00;;;;;;;31.14;32.28;97022.94;2082118;28;20446;-64
2022/07/21 13:13:12;;;;;;;6.47;3.53;;;;;;;31.08;32.28;97026.41;2085067;28;20425;-63
2022/07/21 13:14:14;;;;;;;7.10;3.33;;;;;;;31.08;32.07;97023.72;2082599;28;20433;-64
2022/07/21 13:15:16;;;;;;;7.47;3.23;;;;;;;31.13;31.86;97026.66;2085072;28;20425;-64
2022/07/21 13:16:20;;;;;;;6.07;3.23;;;;;;;31.26;31.29;97024.13;2075773;28;20430;-64
2022/07/21 13:17:24;;;;;;;7.60;3.47;;;;;;;31.64;30.82;97019.53;2074612;28;20866;-64
2022/07/21 13:18:26;;;;;;;6.27;3.20;;;;;;;31.50;31.05;97015.84;2081774;28;20928;-64
2022/07/21 13:19:27;;;;;;;6.10;3.93;;;;;;;31.66;31.10;97018.31;2082973;28;20430;-64
2022/07/21 13:20:29;;;;;;;6.70;3.50;;;;;;;31.56;31.26;97013.22;2083034;28;20429;-67
2022/07/21 13:21:30;;;;;;;4.63;3.70;;;;;;;32.65;30.56;97013.03;2076606;28;20530;-67
2022/07/21 13:22:32;;;;;;;4.60;2.97;;;;;;;32.03;30.40;97008.25;2074185;28;20466;-67
2022/07/21 13:23:33;;;;;;;7.30;3.33;;;;;;;31.67;31.65;97011.91;2080604;28;20434;-67
2022/07/21 13:24:35;;;;;;;6.77;3.60;;;;;;;31.62;31.26;97008.06;2084950;28;20426;-67
2022/07/21 13:25:37;;;;;;;4.00;3.20;;;;;;;31.60;30.84;97019.06;2082526;28;20464;-67
2022/07/21 13:26:38;;;;;;;4.40;3.07;;;;;;;31.80;30.05;97007.66;2084450;28;20516;-67
2022/07/21 13:27:40;;;;;;;5.00;3.03;;;;;;;31.33;31.22;97016.09;2082887;28;20465;-67
2022/07/21 13:28:48;;;;;;;4.27;2.63;;;;;;;30.71;32.36;97015.56;2084620;28;20426;-67
2022/07/21 13:29:49;;;;;;;5.47;3.90;;;;;;;30.38;32.35;97021.28;2082378;28;20465;-67
2022/07/21 13:30:51;;;;;;;3.83;3.10;;;;;;;30.78;31.94;97011.09;2085702;28;20819;-67
2022/07/21 13:31:53;;;;;;;5.73;2.50;;;;;;;31.32;30.86;97008.22;2081681;28;20444;-67
2022/07/21 13:32:55;;;;;;;7.20;3.70;;;;;;;31.56;30.63;97007.81;2085234;28;20433;-67